createdAt,value
2019-05-20T00:01:22.590Z,2.12
2019-05-20T00:03:50.043Z,2.97
2019-05-20T00:06:17.508Z,2.40
2019-05-20T00:08:45.040Z,3.15
2019-05-20T00:11:12.609Z,2.03
2019-05-20T00:13:40.109Z,1.80
2019-05-20T00:16:07.591Z,2.90
2019-05-20T00:18:35.069Z,2.85
2019-05-20T00:21:02.546Z,2.25
2019-05-20T00:23:30.050Z,1.80
2019-05-20T00:25:57.618Z,2.20
2019-05-20T00:28:25.061Z,2.35
2019-05-20T00:30:52.564Z,2.08
2019-05-20T00:33:20.131Z,1.90
2019-05-20T00:35:47.610Z,3.03
2019-05-20T00:38:15.097Z,3.00
2019-05-20T00:40:42.559Z,2.47
2019-05-20T00:43:10.024Z,2.00
2019-05-20T00:45:37.526Z,2.03
2019-05-20T00:48:04.977Z,2.47
2019-05-20T00:50:32.485Z,3.08
2019-05-20T00:52:59.948Z,2.50
2019-05-20T00:55:28.205Z,2.75
2019-05-20T00:57:55.648Z,2.60
2019-05-20T01:00:23.185Z,3.00
2019-05-20T01:02:56.846Z,2.35
2019-05-20T01:05:18.189Z,3.47
2019-05-20T01:07:45.663Z,2.70
2019-05-20T01:10:13.139Z,2.72
2019-05-20T01:12:40.591Z,2.75
2019-05-20T01:15:08.130Z,2.70
2019-05-20T01:17:35.640Z,3.12
2019-05-20T01:20:03.142Z,2.28
2019-05-20T01:22:30.610Z,2.70
2019-05-20T01:24:58.106Z,2.97
2019-05-20T01:27:25.549Z,2.00
2019-05-20T01:29:53.035Z,2.60
2019-05-20T01:32:20.491Z,3.47
2019-05-20T01:34:47.986Z,3.00
2019-05-20T01:37:15.435Z,3.33
2019-05-20T01:39:42.933Z,3.00
2019-05-20T01:42:10.431Z,4.40
2019-05-20T01:44:37.958Z,3.00
2019-05-20T01:47:05.405Z,3.72
2019-05-20T01:49:32.902Z,3.08
2019-05-20T01:52:00.584Z,3.08
2019-05-20T01:54:28.052Z,2.50
2019-05-20T01:56:55.507Z,3.55
2019-05-20T01:59:22.991Z,3.42
2019-05-20T02:01:50.552Z,2.50
2019-05-20T02:04:18.050Z,2.60
2019-05-20T02:06:45.576Z,2.50
2019-05-20T02:09:13.013Z,2.97
2019-05-20T02:11:40.490Z,2.55
2019-05-20T02:14:24.823Z,2.40
2019-05-20T02:16:52.342Z,3.80
2019-05-20T02:19:19.875Z,2.90
2019-05-20T02:21:47.351Z,2.85
2019-05-20T02:24:14.836Z,3.25
2019-05-20T02:26:42.305Z,2.60
2019-05-20T02:29:09.843Z,3.17
2019-05-20T02:31:37.327Z,3.83
2019-05-20T02:34:04.841Z,3.22
2019-05-20T02:36:32.344Z,2.90
2019-05-20T02:38:59.810Z,3.05
2019-05-20T02:41:27.273Z,3.17
2019-05-20T02:43:54.800Z,4.15
2019-05-20T02:46:22.301Z,2.90
2019-05-20T02:48:49.811Z,3.45
2019-05-20T02:51:17.313Z,3.70
2019-05-20T02:53:44.887Z,2.72
2019-05-20T02:56:12.337Z,3.30
2019-05-20T02:58:39.890Z,3.00
2019-05-20T03:01:07.374Z,3.65
2019-05-20T03:03:35.594Z,4.32
2019-05-20T03:06:03.115Z,3.55
2019-05-20T03:08:30.561Z,3.25
2019-05-20T03:10:58.017Z,3.78
2019-05-20T03:13:25.941Z,2.65
2019-05-20T03:15:53.365Z,3.40
2019-05-20T03:18:20.854Z,2.70
2019-05-20T03:20:48.314Z,3.30
2019-05-20T03:23:15.920Z,2.90
2019-05-20T03:25:43.414Z,3.03
2019-05-20T03:28:10.894Z,2.97
2019-05-20T03:30:38.345Z,3.05
2019-05-20T03:33:05.848Z,3.35
2019-05-20T03:35:33.329Z,3.40
2019-05-20T03:38:00.812Z,3.40
2019-05-20T03:40:28.362Z,3.30
2019-05-20T03:42:55.815Z,3.87
2019-05-20T03:45:23.269Z,3.67
2019-05-20T03:47:50.745Z,3.35
2019-05-20T03:50:18.195Z,3.80
2019-05-20T03:52:45.858Z,3.33
2019-05-20T03:55:13.346Z,3.72
2019-05-20T03:57:40.841Z,3.25
2019-05-20T04:00:08.317Z,3.28
2019-05-20T04:02:35.817Z,3.42
2019-05-20T04:05:03.576Z,3.37
2019-05-20T04:07:30.791Z,3.83
2019-05-20T04:09:58.273Z,3.80
2019-05-20T04:12:25.929Z,3.00
2019-05-20T04:14:53.698Z,3.22
2019-05-20T04:17:21.153Z,3.50
2019-05-20T04:19:48.670Z,3.35
2019-05-20T04:22:16.372Z,4.25
2019-05-20T04:24:43.847Z,3.40
2019-05-20T04:27:11.316Z,5.72
2019-05-20T04:29:38.819Z,4.30
2019-05-20T04:32:06.311Z,4.07
2019-05-20T04:34:33.813Z,4.78
2019-05-20T04:37:01.258Z,4.95
2019-05-20T04:39:28.751Z,4.45
2019-05-20T04:41:56.251Z,4.97
2019-05-20T04:44:23.793Z,4.72
2019-05-20T04:46:51.386Z,4.80
2019-05-20T04:49:19.229Z,4.45
2019-05-20T04:51:46.792Z,3.65
2019-05-20T04:54:14.251Z,4.53
2019-05-20T04:56:41.843Z,3.70
2019-05-20T04:59:09.317Z,4.00
2019-05-20T05:01:36.856Z,3.20
2019-05-20T05:04:04.316Z,4.20
2019-05-20T05:06:31.805Z,4.00
2019-05-20T05:08:59.300Z,4.75
2019-05-20T05:11:26.788Z,5.07
2019-05-20T05:13:54.306Z,4.78
2019-05-20T05:16:21.889Z,4.25
2019-05-20T05:18:49.551Z,4.40
2019-05-20T05:21:17.059Z,4.10
2019-05-20T05:23:58.297Z,2.97
2019-05-20T05:26:12.132Z,4.47
2019-05-20T05:28:40.506Z,4.05
2019-05-20T05:31:07.989Z,4.00
2019-05-20T05:33:35.710Z,5.72
2019-05-20T05:36:03.267Z,5.18
2019-05-20T05:38:30.772Z,4.85
2019-05-20T05:40:58.363Z,5.97
2019-05-20T05:43:25.817Z,5.85
2019-05-20T05:45:53.413Z,4.90
2019-05-20T05:48:20.870Z,4.82
2019-05-20T05:50:48.359Z,6.37
2019-05-20T05:53:15.860Z,5.62
2019-05-20T05:55:44.229Z,4.80
2019-05-20T05:58:11.825Z,5.53
2019-05-20T06:00:39.313Z,5.18
2019-05-20T06:03:06.799Z,6.93
2019-05-20T06:05:34.327Z,4.43
2019-05-20T06:08:01.875Z,5.00
2019-05-20T06:10:29.324Z,6.30
2019-05-20T06:12:56.836Z,5.93
2019-05-20T06:15:24.644Z,5.78
2019-05-20T06:17:52.113Z,7.37
2019-05-20T06:20:19.587Z,6.20
2019-05-20T06:22:47.080Z,7.70
2019-05-20T06:25:14.685Z,5.55
2019-05-20T06:27:42.189Z,5.72
2019-05-20T06:30:09.785Z,6.05
2019-05-20T06:32:37.399Z,4.35
2019-05-20T06:35:06.663Z,6.75
2019-05-20T06:37:34.175Z,4.55
2019-05-20T06:40:01.668Z,3.92
2019-05-20T06:42:29.121Z,4.82
2019-05-20T06:44:57.392Z,4.12
2019-05-20T06:47:24.618Z,3.87
2019-05-20T06:49:52.430Z,3.42
2019-05-20T06:52:34.802Z,5.30
2019-05-20T06:54:48.099Z,3.75
2019-05-20T06:57:15.817Z,6.20
2019-05-20T06:59:43.302Z,5.30
2019-05-20T07:02:10.769Z,4.37
2019-05-20T07:04:38.273Z,4.05
2019-05-20T07:07:20.022Z,5.00
2019-05-20T07:09:33.322Z,7.20
2019-05-20T07:12:00.804Z,4.85
2019-05-20T07:14:28.300Z,6.40
2019-05-20T07:16:55.782Z,5.10
2019-05-20T07:19:23.268Z,4.57
2019-05-20T07:21:50.795Z,4.93
2019-05-20T07:24:18.297Z,4.78
2019-05-20T07:26:46.714Z,3.72
2019-05-20T07:29:14.385Z,3.70
2019-05-20T07:31:41.863Z,4.70
2019-05-20T07:34:09.431Z,6.40
2019-05-20T07:36:36.881Z,3.55
2019-05-20T07:39:04.636Z,4.10
2019-05-20T07:41:33.114Z,3.70
2019-05-20T07:44:00.669Z,5.17
2019-05-20T07:46:28.247Z,2.80
2019-05-20T07:48:55.754Z,2.83
2019-05-20T07:51:23.219Z,3.20
2019-05-20T07:53:50.822Z,4.20
2019-05-20T07:56:20.338Z,3.70
2019-05-20T07:58:48.040Z,2.95
2019-05-20T08:01:15.795Z,3.20
2019-05-20T08:03:43.262Z,2.85
2019-05-20T08:06:10.750Z,4.65
2019-05-20T08:08:38.349Z,4.68
2019-05-20T08:11:06.024Z,4.90
2019-05-20T08:13:33.580Z,3.65
2019-05-20T08:16:01.134Z,5.45
2019-05-20T08:18:28.816Z,6.35
2019-05-20T08:20:56.415Z,6.18
2019-05-20T08:23:23.917Z,4.72
2019-05-20T08:25:51.477Z,5.15
2019-05-20T08:28:19.046Z,5.50
2019-05-20T08:30:46.538Z,5.78
2019-05-20T08:33:13.998Z,6.18
2019-05-20T08:35:41.620Z,4.97
2019-05-20T08:38:09.105Z,4.55
2019-05-20T08:40:36.638Z,5.50
2019-05-20T09:22:19.289Z,6.05
2019-05-20T09:24:46.990Z,8.77
2019-05-20T09:27:14.374Z,5.53
2019-05-20T09:29:41.869Z,4.25
2019-05-20T09:32:09.417Z,6.20
2019-05-20T09:34:36.887Z,4.20
2019-05-20T09:37:04.706Z,4.85
2019-05-20T09:39:32.244Z,4.10
2019-05-20T09:41:59.759Z,4.72
2019-05-20T09:44:27.251Z,5.70
2019-05-20T09:46:54.707Z,5.53
2019-05-20T09:49:22.198Z,9.82
2019-05-20T09:51:49.682Z,5.18
2019-05-20T09:54:17.142Z,4.37
2019-05-20T09:56:44.732Z,7.47
2019-05-20T09:59:14.230Z,7.50
2019-05-20T10:01:40.444Z,4.12
2019-05-20T10:04:07.307Z,4.97
2019-05-20T10:06:34.765Z,5.03
2019-05-20T10:09:02.239Z,8.55
2019-05-20T10:11:30.035Z,7.68
2019-05-20T10:13:57.503Z,4.65
2019-05-20T10:16:25.794Z,6.87
2019-05-20T10:21:20.471Z,4.00
2019-05-20T10:33:37.156Z,3.72
2019-05-20T10:36:03.786Z,5.18
2019-05-20T11:25:07.442Z,3.58
2019-05-20T11:27:34.930Z,2.47
2019-05-20T11:30:07.223Z,2.45
2019-05-20T11:32:34.742Z,3.03
2019-05-20T11:35:02.627Z,3.37
2019-05-20T11:37:29.974Z,2.55
2019-05-20T11:39:57.466Z,3.47
2019-05-20T11:42:24.990Z,2.75
2019-05-20T11:44:52.446Z,4.60
2019-05-20T11:47:20.204Z,3.72
2019-05-20T11:49:47.685Z,4.15
2019-05-20T11:52:15.294Z,3.17
2019-05-20T11:54:42.788Z,2.70
2019-05-20T11:57:10.514Z,3.15
2019-05-20T11:59:38.264Z,5.20
2019-05-20T12:02:05.834Z,4.60
2019-05-20T12:04:33.511Z,4.78
2019-05-20T12:07:00.955Z,5.07
2019-05-20T12:09:28.479Z,3.72
2019-05-20T12:11:55.973Z,4.15
2019-05-20T12:14:23.475Z,3.30
2019-05-20T12:16:50.980Z,3.37
2019-05-20T12:19:18.455Z,5.25
2019-05-20T12:21:45.914Z,4.12
2019-05-20T12:24:13.385Z,3.75
2019-05-20T12:26:40.871Z,6.30
2019-05-20T12:29:08.343Z,4.40
2019-05-20T12:31:35.804Z,4.68
2019-05-20T12:34:03.337Z,5.82
2019-05-20T12:36:30.805Z,4.55
2019-05-20T12:38:58.250Z,4.07
2019-05-20T12:41:25.933Z,4.57
2019-05-20T12:44:10.868Z,5.53
2019-05-20T12:46:21.007Z,4.10
2019-05-20T12:48:48.779Z,5.20
2019-05-20T12:51:16.188Z,4.62
2019-05-20T12:53:43.684Z,4.15
2019-05-20T12:56:11.202Z,4.70
2019-05-20T12:58:38.697Z,3.90
2019-05-20T13:01:06.387Z,5.95
2019-05-20T13:03:33.990Z,4.50
2019-05-20T13:06:01.501Z,5.22
2019-05-20T13:08:29.005Z,4.30
2019-05-20T13:10:56.468Z,5.65
2019-05-20T13:13:23.995Z,3.72
2019-05-20T13:15:51.557Z,4.03
2019-05-20T13:18:18.972Z,4.87
2019-05-20T13:23:15.265Z,5.40
2019-05-20T13:25:41.267Z,5.18
2019-05-20T13:28:08.818Z,3.80
2019-05-20T13:30:37.008Z,5.43
2019-05-20T13:33:05.443Z,6.95
2019-05-20T13:35:32.928Z,5.82
2019-05-20T13:38:00.440Z,5.65
2019-05-20T13:45:22.198Z,5.65
2019-05-20T13:47:49.804Z,6.00
2019-05-20T13:50:18.668Z,4.43
2019-05-20T13:52:46.180Z,6.18
2019-05-20T13:55:13.691Z,3.33
2019-05-20T13:57:42.369Z,4.20
2019-05-20T14:00:09.977Z,3.53
2019-05-20T14:05:04.624Z,3.37
2019-05-20T14:07:32.122Z,3.65
2019-05-20T14:10:01.388Z,3.60
2019-05-20T14:12:28.866Z,3.45
2019-05-20T14:14:56.359Z,3.25
2019-05-20T14:17:23.899Z,3.97
2019-05-20T14:19:51.460Z,4.18
2019-05-20T14:22:18.994Z,6.40
2019-05-20T14:24:46.599Z,4.07
2019-05-20T14:27:14.703Z,3.20
2019-05-20T14:29:42.207Z,3.95
2019-05-20T14:56:41.237Z,4.60
2019-05-20T14:59:08.753Z,3.15
2019-05-20T15:01:36.355Z,3.72
2019-05-20T15:04:03.878Z,2.62
2019-05-20T15:06:31.466Z,2.70
2019-05-20T15:08:58.931Z,3.72
2019-05-20T15:11:37.831Z,4.37
2019-05-20T15:13:54.025Z,3.80
2019-05-20T15:16:21.746Z,6.10
2019-05-20T15:18:49.090Z,5.05
2019-05-20T15:21:16.693Z,6.37
2019-05-20T15:23:44.357Z,6.70
2019-05-20T15:26:12.178Z,7.72
2019-05-20T15:28:39.778Z,7.72
2019-05-20T15:31:07.326Z,8.07
2019-05-20T15:33:34.843Z,7.62
2019-05-20T15:36:02.489Z,7.50
2019-05-20T15:38:29.994Z,7.18
2019-05-20T15:40:57.588Z,6.87
2019-05-20T15:43:25.072Z,7.43
2019-05-20T15:45:52.672Z,6.60
2019-05-20T15:48:20.176Z,7.20
2019-05-20T15:50:47.657Z,6.32
2019-05-20T15:53:16.536Z,6.60
2019-05-20T15:55:43.996Z,8.13
2019-05-20T15:58:11.483Z,7.72
2019-05-20T16:00:38.976Z,7.60
2019-05-20T16:03:06.431Z,5.93
2019-05-20T16:05:34.108Z,6.07
2019-05-20T16:08:01.900Z,6.00
2019-05-20T16:10:29.115Z,7.00
2019-05-20T16:12:56.762Z,5.72
2019-05-20T16:15:25.139Z,7.25
2019-05-20T16:17:52.656Z,5.57
2019-05-20T16:20:20.203Z,8.18
2019-05-20T16:22:48.234Z,9.20
2019-05-20T16:25:15.823Z,7.25
2019-05-20T16:27:43.302Z,5.68
2019-05-20T16:30:10.986Z,5.85
2019-05-20T16:32:38.456Z,7.03
2019-05-20T16:35:05.988Z,7.10
2019-05-20T16:37:33.686Z,6.65
2019-05-20T16:40:01.310Z,7.70
2019-05-20T16:42:28.872Z,7.70
2019-05-20T16:44:56.434Z,6.90
2019-05-20T16:47:23.914Z,6.55
2019-05-20T16:49:51.690Z,6.85
2019-05-20T16:52:19.155Z,7.15
2019-05-20T16:54:46.630Z,7.40
2019-05-20T16:57:14.097Z,7.75
2019-05-20T16:59:41.771Z,7.15
2019-05-20T17:02:09.279Z,5.05
2019-05-20T17:04:36.760Z,5.57
2019-05-20T17:07:04.314Z,6.28
2019-05-20T17:09:31.843Z,5.90
2019-05-20T17:11:59.301Z,5.93
2019-05-20T17:14:27.067Z,7.07
2019-05-20T17:16:55.571Z,5.70
2019-05-20T17:19:23.222Z,7.00
2019-05-20T17:21:50.708Z,5.28
2019-05-20T17:24:18.271Z,7.80
2019-05-20T17:26:45.836Z,4.40
2019-05-20T17:29:13.420Z,4.80
2019-05-20T17:31:40.950Z,5.20
2019-05-20T17:34:08.451Z,5.72
2019-05-20T17:36:36.007Z,4.65
2019-05-20T17:39:03.507Z,4.93
2019-05-20T17:41:31.033Z,3.97
2019-05-20T17:43:58.654Z,4.90
2019-05-20T17:46:26.180Z,5.37
2019-05-20T17:48:53.682Z,4.65
2019-05-20T17:51:21.250Z,4.57
2019-05-20T17:53:48.796Z,4.37
2019-05-20T17:56:16.353Z,6.53
2019-05-20T17:58:43.874Z,7.78
2019-05-20T18:01:15.231Z,6.10
2019-05-20T18:03:38.947Z,6.40
2019-05-20T18:06:06.754Z,7.12
2019-05-20T18:08:34.304Z,4.95
2019-05-20T18:11:01.870Z,5.87
2019-05-20T18:13:29.549Z,6.85
2019-05-20T18:15:57.043Z,6.65
2019-05-20T18:18:24.508Z,6.28
2019-05-20T18:20:52.087Z,6.32
2019-05-20T18:23:19.712Z,6.87
2019-05-20T18:25:47.221Z,5.68
2019-05-20T18:28:14.704Z,7.50
2019-05-20T18:30:42.307Z,6.68
2019-05-20T18:33:09.776Z,10.77
2019-05-20T18:35:37.405Z,9.98
2019-05-20T18:38:04.888Z,5.37
2019-05-20T18:40:32.459Z,7.05
2019-05-20T18:43:00.081Z,7.35
2019-05-20T18:45:27.578Z,6.05
2019-05-20T18:47:55.687Z,8.10
2019-05-20T18:50:23.177Z,7.25
2019-05-20T18:52:50.648Z,10.70
2019-05-20T18:55:18.182Z,8.65
2019-05-20T18:57:45.634Z,6.20
2019-05-20T19:00:13.175Z,9.93
2019-05-20T19:02:40.646Z,8.82
2019-05-20T19:05:08.984Z,6.82
2019-05-20T19:07:37.135Z,5.37
2019-05-20T19:10:04.787Z,5.90
2019-05-20T19:12:32.295Z,4.90
2019-05-20T19:14:59.850Z,4.60
2019-05-20T19:17:27.521Z,6.07
2019-05-20T19:22:27.653Z,5.45
2019-05-20T19:24:55.139Z,4.22
2019-05-20T19:27:22.615Z,5.40
2019-05-20T19:29:50.415Z,4.70
2019-05-20T19:32:18.039Z,4.78
2019-05-20T19:34:45.591Z,4.60
2019-05-20T19:37:13.082Z,5.50
2019-05-20T19:39:40.552Z,5.32
2019-05-20T19:42:08.155Z,5.53
2019-05-20T19:44:36.154Z,5.93
2019-05-20T19:47:03.643Z,6.07
2019-05-20T19:49:31.136Z,4.93
2019-05-20T19:51:58.723Z,6.62
2019-05-20T19:54:26.202Z,5.75
2019-05-20T19:56:53.671Z,5.78
2019-05-20T19:59:21.271Z,4.87
2019-05-20T20:01:48.730Z,5.78
2019-05-20T20:04:16.236Z,4.82
2019-05-20T20:06:43.711Z,4.75
2019-05-20T20:09:11.231Z,6.00
2019-05-20T20:11:38.870Z,4.65
2019-05-20T20:14:06.352Z,4.50
2019-05-20T20:16:34.034Z,6.05
2019-05-20T20:23:57.218Z,7.60
2019-05-20T20:26:25.565Z,7.25
2019-05-20T20:28:53.119Z,8.70
2019-05-20T20:31:20.565Z,8.10
2019-05-20T20:33:48.023Z,5.85
2019-05-20T20:36:15.467Z,6.80
2019-05-20T20:38:42.991Z,5.80
2019-05-20T20:41:10.534Z,7.25
2019-05-20T20:43:38.028Z,6.20
2019-05-20T20:46:05.485Z,6.85
2019-05-20T20:50:59.976Z,5.50
2019-05-20T20:55:54.915Z,6.10
2019-05-20T21:08:10.465Z,5.57
2019-05-20T21:10:38.023Z,7.62
2019-05-20T21:13:05.608Z,6.43
2019-05-20T21:15:33.060Z,6.60
2019-05-20T21:18:00.536Z,7.90
2019-05-20T21:20:28.009Z,5.22
2019-05-20T21:22:55.482Z,4.65
2019-05-20T21:25:22.951Z,5.85
2019-05-20T21:27:50.462Z,5.35
2019-05-20T21:30:17.925Z,8.45
2019-05-20T21:32:45.433Z,6.97
2019-05-20T21:35:13.023Z,6.78
2019-05-20T21:37:40.489Z,6.93
2019-05-20T21:40:08.050Z,5.12
2019-05-20T21:42:35.579Z,6.10
2019-05-20T21:45:03.070Z,7.20
2019-05-20T21:47:30.614Z,6.28
2019-05-20T21:49:58.058Z,7.55
2019-05-20T21:52:25.535Z,6.28
2019-05-20T21:54:53.102Z,6.28
2019-05-20T21:57:21.441Z,8.40
2019-05-20T21:59:48.945Z,10.18
2019-05-20T22:02:16.548Z,9.75
2019-05-20T22:04:44.005Z,9.32
2019-05-20T22:07:11.562Z,8.52
2019-05-20T22:09:39.427Z,9.33
2019-05-20T22:12:06.881Z,8.60
2019-05-20T22:14:34.343Z,8.03
2019-05-20T22:17:01.809Z,8.15
2019-05-20T22:19:29.264Z,6.37
2019-05-20T22:21:56.781Z,6.55
2019-05-20T22:24:24.254Z,6.15
2019-05-20T22:26:51.758Z,5.82
2019-05-20T22:29:19.391Z,6.60
2019-05-20T22:34:13.827Z,5.97
2019-05-20T22:36:41.281Z,7.00
2019-05-20T22:39:08.738Z,6.62
2019-05-20T22:41:36.221Z,7.25
2019-05-20T22:44:03.694Z,7.32
2019-05-20T22:46:31.221Z,6.30
2019-05-20T22:48:58.676Z,5.82
2019-05-20T22:51:26.123Z,6.50
2019-05-20T22:53:53.619Z,6.05
2019-05-20T22:56:21.100Z,5.72
2019-05-20T22:58:49.174Z,7.68
2019-05-20T23:01:16.722Z,7.57
2019-05-20T23:03:55.547Z,7.72
2019-05-20T23:06:11.792Z,7.20
2019-05-20T23:08:39.396Z,7.30
2019-05-20T23:11:06.876Z,6.50
2019-05-20T23:13:34.339Z,7.12
2019-05-20T23:16:01.916Z,7.90
2019-05-20T23:18:29.371Z,7.00
2019-05-20T23:20:56.840Z,6.25
2019-05-20T23:23:24.296Z,6.22
2019-05-20T23:25:52.915Z,5.28
2019-05-20T23:28:19.300Z,5.90
2019-05-20T23:30:46.763Z,5.75
2019-05-20T23:33:14.394Z,6.30
2019-05-20T23:35:41.851Z,5.50
2019-05-20T23:38:09.333Z,5.77
2019-05-20T23:40:36.836Z,7.40
2019-05-20T23:43:04.324Z,6.97
2019-05-20T23:45:31.798Z,6.20
2019-05-20T23:47:59.673Z,6.90
2019-05-20T23:50:27.212Z,5.63
2019-05-20T23:52:54.687Z,6.85
2019-05-20T23:55:22.180Z,7.70
2019-05-20T23:57:49.632Z,8.63
